sensor_id;sensor_type;location;lat;lon;timestamp;pressure;altitude;pressure_sealevel;temperature;humidity
3178;BME280;38141;42.666;23.344;2023-02-11T00:01:47;96297.16;;;-1.31;78.20
3178;BME280;38141;42.666;23.344;2023-02-11T00:04:15;96307.78;;;-1.26;78.69
3178;BME280;38141;42.666;23.344;2023-02-11T00:06:43;96274.63;;;-1.39;77.87
3178;BME280;38141;42.666;23.344;2023-02-11T00:09:10;96290.78;;;-1.25;77.25
3178;BME280;38141;42.666;23.344;2023-02-11T00:11:37;96259.25;;;-1.47;76.63
3178;BME280;38141;42.666;23.344;2023-02-11T00:14:05;96296.09;;;-1.36;78.15
3178;BME280;38141;42.666;23.344;2023-02-11T00:16:33;96307.25;;;-1.33;77.62
3178;BME280;38141;42.666;23.344;2023-02-11T00:19:01;96295.59;;;-1.43;76.99
3178;BME280;38141;42.666;23.344;2023-02-11T00:21:29;96291.88;;;-1.52;77.38
3178;BME280;38141;42.666;23.344;2023-02-11T00:23:58;96304.09;;;-1.51;77.78
3178;BME280;38141;42.666;23.344;2023-02-11T00:26:29;96275.97;;;-1.67;77.50
3178;BME280;38141;42.666;23.344;2023-02-11T00:28:56;96304.06;;;-1.41;76.58
3178;BME280;38141;42.666;23.344;2023-02-11T00:31:23;96274.09;;;-1.71;77.02
3178;BME280;38141;42.666;23.344;2023-02-11T00:33:50;96304.34;;;-1.67;76.76
3178;BME280;38141;42.666;23.344;2023-02-11T00:36:20;96303.81;;;-1.69;76.92
3178;BME280;38141;42.666;23.344;2023-02-11T00:38:48;96286.84;;;-1.78;77.47
3178;BME280;38141;42.666;23.344;2023-02-11T00:41:17;96302.75;;;-1.94;79.36
3178;BME280;38141;42.666;23.344;2023-02-11T00:43:44;96269.56;;;-2.21;79.57
3178;BME280;38141;42.666;23.344;2023-02-11T00:46:11;96268.53;;;-2.10;79.62
3178;BME280;38141;42.666;23.344;2023-02-11T00:48:38;96268.53;;;-1.95;78.21
3178;BME280;38141;42.666;23.344;2023-02-11T00:51:05;96189.25;;;-2.42;76.92
3178;BME280;38141;42.666;23.344;2023-02-11T00:53:34;96255.25;;;-2.26;76.45
3178;BME280;38141;42.666;23.344;2023-02-11T00:56:01;96289.50;;;-1.78;76.31
3178;BME280;38141;42.666;23.344;2023-02-11T00:58:29;96295.84;;;-1.85;75.88
3178;BME280;38141;42.666;23.344;2023-02-11T01:00:56;96239.38;;;-2.15;75.57
3178;BME280;38141;42.666;23.344;2023-02-11T01:03:23;96257.13;;;-2.11;75.73
3178;BME280;38141;42.666;23.344;2023-02-11T01:05:49;96176.78;;;-2.57;75.30
3178;BME280;38141;42.666;23.344;2023-02-11T01:08:18;96286.31;;;-1.75;75.91
3178;BME280;38141;42.666;23.344;2023-02-11T01:10:44;96243.09;;;-2.06;75.31
3178;BME280;38141;42.666;23.344;2023-02-11T01:13:18;96253.66;;;-2.27;76.23
3178;BME280;38141;42.666;23.344;2023-02-11T01:15:46;96278.06;;;-2.09;77.31
3178;BME280;38141;42.666;23.344;2023-02-11T01:18:13;96265.31;;;-2.17;77.69
3178;BME280;38141;42.666;23.344;2023-02-11T01:20:40;96286.59;;;-1.87;77.63
3178;BME280;38141;42.666;23.344;2023-02-11T01:23:07;96260.84;;;-1.97;76.64
3178;BME280;38141;42.666;23.344;2023-02-11T01:25:34;96227.44;;;-2.28;76.46
3178;BME280;38141;42.666;23.344;2023-02-11T01:28:01;96277.56;;;-1.76;76.02
3178;BME280;38141;42.666;23.344;2023-02-11T01:30:28;96273.03;;;-1.91;75.22
3178;BME280;38141;42.666;23.344;2023-02-11T01:32:56;96279.41;;;-1.92;75.38
3178;BME280;38141;42.666;23.344;2023-02-11T01:35:23;96255.78;;;-2.29;76.23
3178;BME280;38141;42.666;23.344;2023-02-11T01:37:49;96256.06;;;-2.10;76.27
3178;BME280;38141;42.666;23.344;2023-02-11T01:40:16;96249.16;;;-2.21;75.54
3178;BME280;38141;42.666;23.344;2023-02-11T01:42:43;96279.09;;;-2.20;76.84
3178;BME280;38141;42.666;23.344;2023-02-11T01:45:41;96267.97;;;-2.28;77.86
3178;BME280;38141;42.666;23.344;2023-02-11T01:48:19;96262.41;;;-2.16;77.52
3178;BME280;38141;42.666;23.344;2023-02-11T01:50:49;96271.69;;;-2.13;77.43
3178;BME280;38141;42.666;23.344;2023-02-11T01:53:18;96244.91;;;-2.32;76.96
3178;BME280;38141;42.666;23.344;2023-02-11T01:56:04;96273.31;;;-2.02;75.72
3178;BME280;38141;42.666;23.344;2023-02-11T01:58:50;96247.53;;;-2.27;76.93
3178;BME280;38141;42.666;23.344;2023-02-11T02:01:22;96272.50;;;-2.03;76.56
3178;BME280;38141;42.666;23.344;2023-02-11T02:03:55;96277.53;;;-2.06;76.39
3178;BME280;38141;42.666;23.344;2023-02-11T02:06:30;96266.66;;;-2.00;74.44
3178;BME280;38141;42.666;23.344;2023-02-11T02:09:02;96273.84;;;-1.80;74.61
3178;BME280;38141;42.666;23.344;2023-02-11T02:11:31;96269.88;;;-1.88;74.17
3178;BME280;38141;42.666;23.344;2023-02-11T02:13:58;96245.47;;;-2.05;73.92
3178;BME280;38141;42.666;23.344;2023-02-11T02:16:29;96235.09;;;-2.21;73.89
3178;BME280;38141;42.666;23.344;2023-02-11T02:19:17;96268.78;;;-2.12;75.50
3178;BME280;38141;42.666;23.344;2023-02-11T02:22:11;96266.38;;;-2.13;76.77
3178;BME280;38141;42.666;23.344;2023-02-11T02:25:04;96272.75;;;-2.04;76.15
3178;BME280;38141;42.666;23.344;2023-02-11T02:27:39;96273.56;;;-2.19;76.01
3178;BME280;38141;42.666;23.344;2023-02-11T02:30:31;96261.34;;;-2.20;76.30
3178;BME280;38141;42.666;23.344;2023-02-11T02:33:17;96240.88;;;-2.55;77.94
3178;BME280;38141;42.666;23.344;2023-02-11T02:35:52;96228.34;;;-2.80;79.51
3178;BME280;38141;42.666;23.344;2023-02-11T02:38:23;96252.56;;;-2.51;79.10
3178;BME280;38141;42.666;23.344;2023-02-11T02:40:57;96245.88;;;-2.58;78.83
3178;BME280;38141;42.666;23.344;2023-02-11T02:43:26;96221.50;;;-2.71;78.96
3178;BME280;38141;42.666;23.344;2023-02-11T02:45:54;96258.91;;;-2.52;79.80
3178;BME280;38141;42.666;23.344;2023-02-11T02:48:25;96258.63;;;-2.55;78.77
3178;BME280;38141;42.666;23.344;2023-02-11T02:51:00;96253.34;;;-2.50;78.88
3178;BME280;38141;42.666;23.344;2023-02-11T02:53:40;96261.56;;;-2.52;78.18
3178;BME280;38141;42.666;23.344;2023-02-11T02:56:13;96215.66;;;-2.78;78.35
3178;BME280;38141;42.666;23.344;2023-02-11T02:59:06;96241.09;;;-2.66;77.46
3178;BME280;38141;42.666;23.344;2023-02-11T03:01:45;96268.69;;;-2.52;77.52
3178;BME280;38141;42.666;23.344;2023-02-11T03:04:21;96264.44;;;-2.58;77.24
3178;BME280;38141;42.666;23.344;2023-02-11T03:06:54;96270.81;;;-2.49;76.45
3178;BME280;38141;42.666;23.344;2023-02-11T03:09:27;96254.38;;;-2.61;77.10
3178;BME280;38141;42.666;23.344;2023-02-11T03:11:55;96269.47;;;-2.57;77.67
3178;BME280;38141;42.666;23.344;2023-02-11T03:14:24;96251.69;;;-2.72;77.63
3178;BME280;38141;42.666;23.344;2023-02-11T03:16:54;96254.38;;;-2.56;76.96
3178;BME280;38141;42.666;23.344;2023-02-11T03:19:27;96267.09;;;-2.53;77.49
3178;BME280;38141;42.666;23.344;2023-02-11T03:21:56;96273.22;;;-2.43;77.26
3178;BME280;38141;42.666;23.344;2023-02-11T03:24:27;96269.53;;;-2.42;77.19
3178;BME280;38141;42.666;23.344;2023-02-11T03:26:57;96229.47;;;-2.65;76.85
3178;BME280;38141;42.666;23.344;2023-02-11T03:29:31;96266.09;;;-2.42;76.12
3178;BME280;38141;42.666;23.344;2023-02-11T03:32:03;96243.75;;;-2.66;76.22
3178;BME280;38141;42.666;23.344;2023-02-11T03:34:39;96231.25;;;-2.86;78.32
3178;BME280;38141;42.666;23.344;2023-02-11T03:37:12;96224.38;;;-2.87;78.15
3178;BME280;38141;42.666;23.344;2023-02-11T03:39:44;96252.97;;;-2.84;77.90
3178;BME280;38141;42.666;23.344;2023-02-11T03:42:13;96244.97;;;-2.94;78.77
3178;BME280;38141;42.666;23.344;2023-02-11T03:44:46;96263.84;;;-2.76;79.72
3178;BME280;38141;42.666;23.344;2023-02-11T03:47:18;96254.28;;;-2.87;79.09
3178;BME280;38141;42.666;23.344;2023-02-11T03:49:49;96268.09;;;-2.75;78.66
3178;BME280;38141;42.666;23.344;2023-02-11T03:52:17;96239.97;;;-2.96;79.81
3178;BME280;38141;42.666;23.344;2023-02-11T03:54:48;96227.50;;;-2.90;79.77
3178;BME280;38141;42.666;23.344;2023-02-11T03:57:16;96260.44;;;-2.66;79.20
3178;BME280;38141;42.666;23.344;2023-02-11T03:59:50;96249.84;;;-2.66;77.51
3178;BME280;38141;42.666;23.344;2023-02-11T04:02:18;96257.53;;;-2.64;78.69
3178;BME280;38141;42.666;23.344;2023-02-11T04:04:45;96258.31;;;-2.69;78.65
3178;BME280;38141;42.666;23.344;2023-02-11T04:07:14;96265.22;;;-2.68;79.36
3178;BME280;38141;42.666;23.344;2023-02-11T04:09:41;96260.94;;;-2.79;80.01
3178;BME280;38141;42.666;23.344;2023-02-11T04:12:08;96142.50;;;-3.71;79.78
3178;BME280;38141;42.666;23.344;2023-02-11T04:14:34;96245.31;;;-2.76;79.29
3178;BME280;38141;42.666;23.344;2023-02-11T04:17:02;96127.06;;;-3.89;79.59
3178;BME280;38141;42.666;23.344;2023-02-11T04:19:28;96142.81;;;-3.63;80.63
3178;BME280;38141;42.666;23.344;2023-02-11T04:21:55;96254.81;;;-2.85;79.45
3178;BME280;38141;42.666;23.344;2023-02-11T04:24:24;96167.25;;;-3.40;80.01
3178;BME280;38141;42.666;23.344;2023-02-11T04:26:51;96133.28;;;-3.69;80.82
3178;BME280;38141;42.666;23.344;2023-02-11T04:29:17;96166.16;;;-3.44;81.35
3178;BME280;38141;42.666;23.344;2023-02-11T04:31:44;96172.78;;;-3.47;81.41
3178;BME280;38141;42.666;23.344;2023-02-11T04:34:11;96269.91;;;-2.80;80.00
3178;BME280;38141;42.666;23.344;2023-02-11T04:36:38;96267.53;;;-2.87;81.77
3178;BME280;38141;42.666;23.344;2023-02-11T04:39:05;96227.72;;;-3.07;81.40
3178;BME280;38141;42.666;23.344;2023-02-11T04:41:33;96246.81;;;-3.05;82.44
3178;BME280;38141;42.666;23.344;2023-02-11T04:44:00;96192.16;;;-3.36;81.16
3178;BME280;38141;42.666;23.344;2023-02-11T04:46:26;96250.25;;;-2.99;80.81
3178;BME280;38141;42.666;23.344;2023-02-11T04:48:53;96205.63;;;-3.38;81.14
3178;BME280;38141;42.666;23.344;2023-02-11T04:51:20;96251.22;;;-3.21;83.20
3178;BME280;38141;42.666;23.344;2023-02-11T04:53:47;96254.69;;;-3.15;83.67
3178;BME280;38141;42.666;23.344;2023-02-11T04:56:14;96263.63;;;-3.21;85.53
3178;BME280;38141;42.666;23.344;2023-02-11T04:58:42;96260.41;;;-3.33;87.86
3178;BME280;38141;42.666;23.344;2023-02-11T05:01:10;96252.28;;;-3.64;89.15
3178;BME280;38141;42.666;23.344;2023-02-11T05:03:38;96228.41;;;-3.74;91.09
3178;BME280;38141;42.666;23.344;2023-02-11T05:06:05;96218.03;;;-3.80;93.93
3178;BME280;38141;42.666;23.344;2023-02-11T05:08:32;96238.31;;;-3.54;94.29
3178;BME280;38141;42.666;23.344;2023-02-11T05:10:59;96115.94;;;-4.70;95.65
3178;BME280;38141;42.666;23.344;2023-02-11T05:13:28;96225.00;;;-3.69;97.16
3178;BME280;38141;42.666;23.344;2023-02-11T05:15:56;96235.25;;;-3.41;95.35
3178;BME280;38141;42.666;23.344;2023-02-11T05:18:23;96235.09;;;-3.61;96.02
3178;BME280;38141;42.666;23.344;2023-02-11T05:20:53;96233.19;;;-3.71;96.64
3178;BME280;38141;42.666;23.344;2023-02-11T05:23:20;96059.63;;;-4.81;96.71
3178;BME280;38141;42.666;23.344;2023-02-11T05:25:46;96039.25;;;-5.22;98.49
3178;BME280;38141;42.666;23.344;2023-02-11T05:28:13;96158.69;;;-4.41;98.77
3178;BME280;38141;42.666;23.344;2023-02-11T05:30:40;96209.31;;;-4.18;100.00
3178;BME280;38141;42.666;23.344;2023-02-11T05:33:08;96241.22;;;-3.92;100.00
3178;BME280;38141;42.666;23.344;2023-02-11T05:35:35;96246.72;;;-3.99;100.00
3178;BME280;38141;42.666;23.344;2023-02-11T05:38:02;96222.28;;;-4.16;100.00
3178;BME280;38141;42.666;23.344;2023-02-11T05:40:29;96232.84;;;-4.16;100.00
3178;BME280;38141;42.666;23.344;2023-02-11T05:42:55;96240.00;;;-4.12;100.00
3178;BME280;38141;42.666;23.344;2023-02-11T05:45:22;96221.28;;;-4.10;100.00
3178;BME280;38141;42.666;23.344;2023-02-11T05:47:50;96224.00;;;-4.00;100.00
3178;BME280;38141;42.666;23.344;2023-02-11T05:50:18;96084.06;;;-4.59;100.00
3178;BME280;38141;42.666;23.344;2023-02-11T05:52:45;96236.44;;;-3.59;100.00
3178;BME280;38141;42.666;23.344;2023-02-11T05:55:12;96282.72;;;-3.19;99.01
3178;BME280;38141;42.666;23.344;2023-02-11T05:57:39;96251.81;;;-3.03;94.69
3178;BME280;38141;42.666;23.344;2023-02-11T06:00:07;96129.13;;;-3.49;92.33
3178;BME280;38141;42.666;23.344;2023-02-11T06:02:34;96229.13;;;-2.89;90.86
3178;BME280;38141;42.666;23.344;2023-02-11T06:05:01;96197.25;;;-3.20;90.92
3178;BME280;38141;42.666;23.344;2023-02-11T06:07:29;96243.56;;;-2.40;90.41
3178;BME280;38141;42.666;23.344;2023-02-11T06:09:56;96133.81;;;-2.89;86.25
3178;BME280;38141;42.666;23.344;2023-02-11T06:12:23;96242.56;;;-1.88;83.24
3178;BME280;38141;42.666;23.344;2023-02-11T06:14:51;96216.53;;;-2.47;82.53
3178;BME280;38141;42.666;23.344;2023-02-11T06:17:17;96218.19;;;-2.00;81.89
3178;BME280;38141;42.666;23.344;2023-02-11T06:19:44;96289.75;;;-1.50;78.30
3178;BME280;38141;42.666;23.344;2023-02-11T06:22:11;96264.75;;;-1.13;73.08
3178;BME280;38141;42.666;23.344;2023-02-11T06:24:39;96261.25;;;-0.34;69.58
3178;BME280;38141;42.666;23.344;2023-02-11T06:27:06;96256.94;;;-0.25;65.47
3178;BME280;38141;42.666;23.344;2023-02-11T06:29:33;96249.50;;;0.16;63.09
3178;BME280;38141;42.666;23.344;2023-02-11T06:32:00;96256.91;;;0.53;61.16
3178;BME280;38141;42.666;23.344;2023-02-11T06:34:26;96264.38;;;1.08;58.99
3178;BME280;38141;42.666;23.344;2023-02-11T06:36:53;96224.28;;;0.95;56.97
3178;BME280;38141;42.666;23.344;2023-02-11T06:39:20;96257.09;;;1.38;56.98
3178;BME280;38141;42.666;23.344;2023-02-11T06:41:48;96240.88;;;1.76;55.56
3178;BME280;38141;42.666;23.344;2023-02-11T06:44:15;96193.50;;;2.52;70.16
3178;BME280;38141;42.666;23.344;2023-02-11T06:46:42;96210.47;;;2.88;57.60
3178;BME280;38141;42.666;23.344;2023-02-11T06:49:09;96262.25;;;3.61;53.38
3178;BME280;38141;42.666;23.344;2023-02-11T06:51:36;96260.31;;;4.24;51.38
3178;BME280;38141;42.666;23.344;2023-02-11T06:54:04;96207.13;;;4.09;48.67
3178;BME280;38141;42.666;23.344;2023-02-11T06:56:31;96250.22;;;4.21;48.54
3178;BME280;38141;42.666;23.344;2023-02-11T06:58:59;96249.84;;;4.36;46.80
3178;BME280;38141;42.666;23.344;2023-02-11T07:01:28;96262.94;;;4.16;46.91
3178;BME280;38141;42.666;23.344;2023-02-11T07:03:55;96249.44;;;4.65;46.27
3178;BME280;38141;42.666;23.344;2023-02-11T07:06:24;96264.31;;;5.02;46.31
3178;BME280;38141;42.666;23.344;2023-02-11T07:08:52;96251.50;;;4.68;45.58
3178;BME280;38141;42.666;23.344;2023-02-11T07:11:20;96258.69;;;5.60;44.35
3178;BME280;38141;42.666;23.344;2023-02-11T07:13:49;96261.63;;;5.81;43.71
3178;BME280;38141;42.666;23.344;2023-02-11T07:16:18;96255.72;;;5.70;43.59
3178;BME280;38141;42.666;23.344;2023-02-11T07:18:46;96252.03;;;6.14;43.18
3178;BME280;38141;42.666;23.344;2023-02-11T07:21:17;96238.91;;;6.04;42.68
3178;BME280;38141;42.666;23.344;2023-02-11T07:23:44;96251.34;;;6.86;41.07
3178;BME280;38141;42.666;23.344;2023-02-11T07:26:12;96252.66;;;7.65;40.31
3178;BME280;38141;42.666;23.344;2023-02-11T07:28:39;96242.00;;;7.97;39.95
3178;BME280;38141;42.666;23.344;2023-02-11T07:31:06;96241.16;;;8.26;40.20
3178;BME280;38141;42.666;23.344;2023-02-11T07:33:35;96229.31;;;8.60;39.96
3178;BME280;38141;42.666;23.344;2023-02-11T07:36:04;96238.97;;;11.54;35.30
3178;BME280;38141;42.666;23.344;2023-02-11T07:38:32;96227.53;;;16.68;28.54
3178;BME280;38141;42.666;23.344;2023-02-11T07:40:59;96239.50;;;17.50;26.73
3178;BME280;38141;42.666;23.344;2023-02-11T07:43:26;96241.00;;;17.19;26.94
3178;BME280;38141;42.666;23.344;2023-02-11T07:45:53;96232.00;;;16.28;27.13
3178;BME280;38141;42.666;23.344;2023-02-11T07:48:20;96206.97;;;13.71;29.55
3178;BME280;38141;42.666;23.344;2023-02-11T07:50:54;96229.81;;;12.25;31.14
3178;BME280;38141;42.666;23.344;2023-02-11T07:53:21;96229.81;;;11.43;32.26
3178;BME280;38141;42.666;23.344;2023-02-11T07:55:48;96216.00;;;11.48;32.73
3178;BME280;38141;42.666;23.344;2023-02-11T07:58:15;96227.88;;;10.29;34.19
3178;BME280;38141;42.666;23.344;2023-02-11T08:00:41;96229.88;;;10.44;34.77
3178;BME280;38141;42.666;23.344;2023-02-11T08:03:08;96227.78;;;11.40;33.19
3178;BME280;38141;42.666;23.344;2023-02-11T08:05:37;96225.47;;;12.40;32.04
3178;BME280;38141;42.666;23.344;2023-02-11T08:08:05;96212.78;;;13.47;30.83
3178;BME280;38141;42.666;23.344;2023-02-11T08:10:32;96208.16;;;13.51;30.28
3178;BME280;38141;42.666;23.344;2023-02-11T08:12:59;96193.97;;;12.55;30.54
3178;BME280;38141;42.666;23.344;2023-02-11T08:15:25;96236.47;;;12.47;31.22
3178;BME280;38141;42.666;23.344;2023-02-11T08:17:52;96210.72;;;11.87;31.78
3178;BME280;38141;42.666;23.344;2023-02-11T08:20:19;96211.50;;;12.99;31.63
3178;BME280;38141;42.666;23.344;2023-02-11T08:22:46;96216.19;;;14.76;29.33
3178;BME280;38141;42.666;23.344;2023-02-11T08:25:14;96223.44;;;18.47;26.25
3178;BME280;38141;42.666;23.344;2023-02-11T08:27:41;96230.03;;;24.16;21.51
3178;BME280;38141;42.666;23.344;2023-02-11T08:30:08;96217.81;;;25.83;19.56
3178;BME280;38141;42.666;23.344;2023-02-11T08:32:35;96228.78;;;25.99;18.61
3178;BME280;38141;42.666;23.344;2023-02-11T08:35:04;96228.88;;;28.16;18.21
3178;BME280;38141;42.666;23.344;2023-02-11T08:37:32;96235.28;;;28.04;17.55
3178;BME280;38141;42.666;23.344;2023-02-11T08:39:59;96227.56;;;26.60;18.04
3178;BME280;38141;42.666;23.344;2023-02-11T08:42:27;96231.59;;;27.46;17.34
3178;BME280;38141;42.666;23.344;2023-02-11T08:44:53;96205.34;;;27.16;17.39
3178;BME280;38141;42.666;23.344;2023-02-11T08:47:20;96212.19;;;24.17;19.57
3178;BME280;38141;42.666;23.344;2023-02-11T08:49:47;96201.88;;;19.40;22.95
3178;BME280;38141;42.666;23.344;2023-02-11T08:52:14;96221.19;;;20.32;22.64
3178;BME280;38141;42.666;23.344;2023-02-11T08:54:40;96224.22;;;18.65;24.92
3178;BME280;38141;42.666;23.344;2023-02-11T08:57:07;96226.88;;;19.60;23.29
3178;BME280;38141;42.666;23.344;2023-02-11T08:59:35;96212.78;;;19.54;23.38
3178;BME280;38141;42.666;23.344;2023-02-11T09:02:04;96225.50;;;17.80;24.98
3178;BME280;38141;42.666;23.344;2023-02-11T09:04:31;96218.69;;;20.04;23.46
3178;BME280;38141;42.666;23.344;2023-02-11T09:07:01;96217.59;;;23.20;21.06
3178;BME280;38141;42.666;23.344;2023-02-11T09:09:27;96206.03;;;24.87;19.65
3178;BME280;38141;42.666;23.344;2023-02-11T09:11:54;96229.09;;;28.00;18.20
3178;BME280;38141;42.666;23.344;2023-02-11T09:14:23;96231.56;;;30.94;16.38
3178;BME280;38141;42.666;23.344;2023-02-11T09:16:52;96230.81;;;31.08;15.41
3178;BME280;38141;42.666;23.344;2023-02-11T09:19:19;96226.31;;;28.00;17.13
3178;BME280;38141;42.666;23.344;2023-02-11T09:21:49;96224.03;;;30.37;15.83
3178;BME280;38141;42.666;23.344;2023-02-11T09:24:23;96187.59;;;30.79;15.72
3178;BME280;38141;42.666;23.344;2023-02-11T09:26:50;96207.50;;;29.50;16.40
3178;BME280;38141;42.666;23.344;2023-02-11T09:29:16;96215.13;;;30.24;16.08
3178;BME280;38141;42.666;23.344;2023-02-11T09:31:43;96214.22;;;29.43;16.27
3178;BME280;38141;42.666;23.344;2023-02-11T09:34:11;96209.63;;;27.38;17.18
3178;BME280;38141;42.666;23.344;2023-02-11T09:36:40;96211.69;;;28.18;16.58
3178;BME280;38141;42.666;23.344;2023-02-11T09:39:08;96209.41;;;29.16;16.78
3178;BME280;38141;42.666;23.344;2023-02-11T09:42:06;96213.72;;;29.27;15.89
3178;BME280;38141;42.666;23.344;2023-02-11T09:44:36;96175.00;;;22.61;19.69
3178;BME280;38141;42.666;23.344;2023-02-11T09:47:05;96167.19;;;21.90;20.69
3178;BME280;38141;42.666;23.344;2023-02-11T09:49:39;96166.28;;;19.29;22.25
3178;BME280;38141;42.666;23.344;2023-02-11T09:52:15;96169.88;;;17.08;24.06
3178;BME280;38141;42.666;23.344;2023-02-11T09:54:52;96162.47;;;17.12;24.64
3178;BME280;38141;42.666;23.344;2023-02-11T09:57:20;96159.28;;;15.48;26.27
3178;BME280;38141;42.666;23.344;2023-02-11T09:59:47;96147.75;;;16.37;25.75
3178;BME280;38141;42.666;23.344;2023-02-11T10:02:20;96150.56;;;16.52;25.64
3178;BME280;38141;42.666;23.344;2023-02-11T10:05:10;96132.09;;;16.24;25.74
3178;BME280;38141;42.666;23.344;2023-02-11T10:07:43;96132.06;;;15.11;27.15
3178;BME280;38141;42.666;23.344;2023-02-11T10:10:27;96091.97;;;15.11;26.63
3178;BME280;38141;42.666;23.344;2023-02-11T10:13:08;96112.59;;;14.35;27.94
3178;BME280;38141;42.666;23.344;2023-02-11T10:15:44;96121.09;;;14.63;27.46
3178;BME280;38141;42.666;23.344;2023-02-11T10:18:37;96098.69;;;15.21;26.65
3178;BME280;38141;42.666;23.344;2023-02-11T10:21:17;96106.25;;;14.27;27.60
3178;BME280;38141;42.666;23.344;2023-02-11T10:23:47;96098.91;;;13.42;28.65
3178;BME280;38141;42.666;23.344;2023-02-11T10:26:17;96091.19;;;12.99;28.45
3178;BME280;38141;42.666;23.344;2023-02-11T10:28:45;96071.53;;;14.17;27.55
3178;BME280;38141;42.666;23.344;2023-02-11T10:31:15;96081.19;;;14.11;26.74
3178;BME280;38141;42.666;23.344;2023-02-11T10:33:45;96066.00;;;13.24;27.09
3178;BME280;38141;42.666;23.344;2023-02-11T10:36:16;96065.94;;;14.03;27.75
3178;BME280;38141;42.666;23.344;2023-02-11T10:38:43;96053.81;;;14.67;26.66
3178;BME280;38141;42.666;23.344;2023-02-11T10:41:14;96043.66;;;13.64;27.75
3178;BME280;38141;42.666;23.344;2023-02-11T10:43:42;96030.50;;;14.70;26.95
3178;BME280;38141;42.666;23.344;2023-02-11T10:46:15;96012.75;;;14.13;27.58
3178;BME280;38141;42.666;23.344;2023-02-11T10:48:45;96030.94;;;14.76;26.52
3178;BME280;38141;42.666;23.344;2023-02-11T10:51:19;96036.63;;;14.60;26.51
3178;BME280;38141;42.666;23.344;2023-02-11T10:53:49;96026.22;;;15.20;26.73
3178;BME280;38141;42.666;23.344;2023-02-11T10:56:22;95989.56;;;13.56;27.82
3178;BME280;38141;42.666;23.344;2023-02-11T10:58:58;95999.31;;;14.27;26.75
3178;BME280;38141;42.666;23.344;2023-02-11T11:01:39;96010.16;;;14.57;27.34
3178;BME280;38141;42.666;23.344;2023-02-11T11:04:33;95994.28;;;13.92;26.31
3178;BME280;38141;42.666;23.344;2023-02-11T11:07:14;95990.28;;;14.19;26.87
3178;BME280;38141;42.666;23.344;2023-02-11T11:09:51;96007.81;;;14.59;27.00
3178;BME280;38141;42.666;23.344;2023-02-11T11:12:32;96004.16;;;15.43;26.35
3178;BME280;38141;42.666;23.344;2023-02-11T11:15:12;95992.31;;;13.89;27.31
3178;BME280;38141;42.666;23.344;2023-02-11T11:17:40;95977.16;;;13.02;28.93
3178;BME280;38141;42.666;23.344;2023-02-11T11:20:29;95992.75;;;13.95;27.59
3178;BME280;38141;42.666;23.344;2023-02-11T11:23:10;95983.91;;;14.38;27.05
3178;BME280;38141;42.666;23.344;2023-02-11T11:25:43;95995.56;;;13.39;27.97
3178;BME280;38141;42.666;23.344;2023-02-11T11:28:20;95996.81;;;13.78;28.28
3178;BME280;38141;42.666;23.344;2023-02-11T11:30:48;95983.25;;;14.15;28.43
3178;BME280;38141;42.666;23.344;2023-02-11T11:33:20;95985.31;;;13.28;28.44
3178;BME280;38141;42.666;23.344;2023-02-11T11:36:00;95987.09;;;13.17;29.10
3178;BME280;38141;42.666;23.344;2023-02-11T11:38:30;95980.72;;;13.06;28.86
3178;BME280;38141;42.666;23.344;2023-02-11T11:41:21;95979.47;;;12.51;28.40
3178;BME280;38141;42.666;23.344;2023-02-11T11:43:57;95975.06;;;13.18;28.13
3178;BME280;38141;42.666;23.344;2023-02-11T11:46:27;95967.47;;;13.31;28.64
3178;BME280;38141;42.666;23.344;2023-02-11T11:49:06;95963.94;;;13.27;27.81
3178;BME280;38141;42.666;23.344;2023-02-11T11:51:37;95963.72;;;12.15;29.20
3178;BME280;38141;42.666;23.344;2023-02-11T11:54:11;95936.66;;;11.57;30.07
3178;BME280;38141;42.666;23.344;2023-02-11T11:56:40;95962.50;;;11.89;29.35
3178;BME280;38141;42.666;23.344;2023-02-11T11:59:13;95959.34;;;12.78;28.99
3178;BME280;38141;42.666;23.344;2023-02-11T12:01:54;95935.84;;;12.89;28.33
3178;BME280;38141;42.666;23.344;2023-02-11T12:04:53;95892.03;;;12.38;28.53
3178;BME280;38141;42.666;23.344;2023-02-11T12:07:32;95930.50;;;11.60;30.37
3178;BME280;38141;42.666;23.344;2023-02-11T12:10:21;95935.44;;;12.16;29.70
3178;BME280;38141;42.666;23.344;2023-02-11T12:12:55;95920.13;;;11.62;29.91
3178;BME280;38141;42.666;23.344;2023-02-11T12:15:33;95925.38;;;11.55;30.16
3178;BME280;38141;42.666;23.344;2023-02-11T12:21:16;95920.19;;;11.46;30.77
3178;BME280;38141;42.666;23.344;2023-02-11T12:23:57;95903.06;;;11.42;30.32
3178;BME280;38141;42.666;23.344;2023-02-11T12:26:35;95897.72;;;11.65;30.18
3178;BME280;38141;42.666;23.344;2023-02-11T12:29:11;95902.38;;;11.07;29.84
3178;BME280;38141;42.666;23.344;2023-02-11T12:31:54;95889.13;;;11.21;29.84
3178;BME280;38141;42.666;23.344;2023-02-11T12:37:36;95887.38;;;11.51;30.02
3178;BME280;38141;42.666;23.344;2023-02-11T12:40:13;95887.09;;;11.37;30.02
3178;BME280;38141;42.666;23.344;2023-02-11T12:43:01;95865.16;;;10.50;30.53
3178;BME280;38141;42.666;23.344;2023-02-11T12:49:13;95878.13;;;10.95;30.59
3178;BME280;38141;42.666;23.344;2023-02-11T12:52:03;95831.44;;;10.12;31.36
3178;BME280;38141;42.666;23.344;2023-02-11T12:54:35;95855.25;;;11.11;30.23
3178;BME280;38141;42.666;23.344;2023-02-11T12:57:10;95831.41;;;10.63;30.46
3178;BME280;38141;42.666;23.344;2023-02-11T12:59:48;95867.66;;;10.93;30.94
3178;BME280;38141;42.666;23.344;2023-02-11T13:02:26;95859.31;;;11.02;31.05
3178;BME280;38141;42.666;23.344;2023-02-11T13:04:56;95859.66;;;10.46;32.14
3178;BME280;38141;42.666;23.344;2023-02-11T13:07:30;95863.63;;;10.68;30.93
3178;BME280;38141;42.666;23.344;2023-02-11T13:10:00;95870.59;;;10.34;31.46
3178;BME280;38141;42.666;23.344;2023-02-11T13:12:32;95861.69;;;10.68;31.20
3178;BME280;38141;42.666;23.344;2023-02-11T13:15:19;95849.56;;;10.43;31.23
3178;BME280;38141;42.666;23.344;2023-02-11T13:17:53;95861.19;;;10.98;31.35
3178;BME280;38141;42.666;23.344;2023-02-11T13:20:34;95849.31;;;10.33;32.29
3178;BME280;38141;42.666;23.344;2023-02-11T13:23:10;95844.63;;;10.30;31.52
3178;BME280;38141;42.666;23.344;2023-02-11T13:25:43;95840.69;;;9.96;31.86
3178;BME280;38141;42.666;23.344;2023-02-11T13:28:24;95854.13;;;10.08;31.63
3178;BME280;38141;42.666;23.344;2023-02-11T13:30:55;95853.59;;;10.18;31.96